Time;durP1;ratioP1;P1;durP2;ratioP2;P2;SDS_P1;SDS_P2;PMS_P1;PMS_P2;Temp;Humidity;BMP_temperature;BMP_pressure;BME280_temperature;BME280_humidity;BME280_pressure;Samples;Min_cycle;Max_cycle;Signal;HPM_P1;HPM_P2
2023/04/27 00:01:43;;;;;;;;;;;;;;;21.47;38.56;101649.47;7254074;19;153996;-53
2023/04/27 00:04:13;;;;;;;;;;;;;;;21.45;38.83;101646.09;7253262;19;154900;-53
2023/04/27 00:06:41;;;;;;;;;;;;;;;21.44;38.43;101645.25;7252427;19;153866;-53
2023/04/27 00:09:08;;;;;;;;;;;;;;;21.42;38.61;101638.28;7253546;19;154476;-54
2023/04/27 00:11:35;;;;;;;;;;;;;;;21.36;39.17;101633.81;7254731;19;153978;-54
2023/04/27 00:14:02;;;;;;;;;;;;;;;21.35;39.14;101632.97;7254145;19;154164;-54
2023/04/27 00:16:29;;;;;;;;;;;;;;;21.35;39.27;101632.97;7252651;19;153317;-54
2023/04/27 00:18:56;;;;;;;;;;;;;;;21.32;38.97;101636.41;7258007;19;154189;-54
2023/04/27 00:21:23;;;;;;;;;;;;;;;21.28;39.34;101636.16;7264800;19;154034;-54
2023/04/27 00:23:49;;;;;;;;;;;;;;;21.26;39.36;101629.97;7254313;19;153820;-54
2023/04/27 00:26:16;;;;;;;;;;;;;;;21.25;39.46;101627.50;7251961;19;155651;-54
2023/04/27 00:28:43;;;;;;;;;;;;;;;21.23;39.36;101629.75;7256878;19;153422;-54
2023/04/27 00:31:10;;;;;;;;;;;;;;;21.19;39.84;101632.31;7250508;19;153639;-54
2023/04/27 00:33:37;;;;;;;;;;;;;;;21.18;39.93;101625.03;7252493;19;154533;-54
2023/04/27 00:36:04;;;;;;;;;;;;;;;21.16;39.79;101623.66;7253861;19;154833;-55
2023/04/27 00:38:31;;;;;;;;;;;;;;;21.15;39.69;101613.53;7251083;19;153326;-54
2023/04/27 00:40:59;;;;;;;;;;;;;;;21.14;40.09;101614.66;7251228;19;154070;-54
2023/04/27 00:43:26;;;;;;;;;;;;;;;21.10;39.84;101614.41;7259757;19;155711;-54
2023/04/27 00:45:53;;;;;;;;;;;;;;;21.09;39.89;101615.53;7249965;19;154359;-54
2023/04/27 00:48:20;;;;;;;;;;;;;;;21.07;40.30;101616.97;7252378;19;153069;-54
2023/04/27 00:50:47;;;;;;;;;;;;;;;21.05;39.98;101613.59;7252155;19;153999;-54
2023/04/27 00:53:14;;;;;;;;;;;;;;;21.04;40.21;101609.09;7257399;19;155080;-54
2023/04/27 00:55:41;;;;;;;;;;;;;;;21.03;40.47;101611.06;7250167;19;154283;-55
2023/04/27 00:58:11;;;;;;;;;;;;;;;21.02;40.49;101600.16;7254782;19;154694;-55
2023/04/27 01:00:38;;;;;;;;;;;;;;;20.99;40.40;101598.75;7247907;19;154014;-55
2023/04/27 01:03:06;;;;;;;;;;;;;;;20.94;40.78;101587.56;7252765;19;152865;-55
2023/04/27 01:05:34;;;;;;;;;;;;;;;20.96;40.50;101585.31;7259112;19;155760;-55
2023/04/27 01:08:02;;;;;;;;;;;;;;;20.95;40.85;101574.34;7255938;19;153729;-58
2023/04/27 01:10:28;;;;;;;;;;;;;;;20.92;40.53;101577.78;7251554;19;152628;-55
2023/04/27 01:12:56;;;;;;;;;;;;;;;20.90;40.53;101571.59;7250971;19;154098;-55
2023/04/27 01:15:23;;;;;;;;;;;;;;;20.89;40.62;101567.13;7248643;19;154408;-55
2023/04/27 01:17:56;;;;;;;;;;;;;;;20.86;40.93;101560.97;7254808;19;153655;-55
2023/04/27 01:20:23;;;;;;;;;;;;;;;20.85;41.13;101548.03;7252323;19;154198;-55
2023/04/27 01:22:50;;;;;;;;;;;;;;;20.83;41.23;101552.31;7251094;19;154321;-55
2023/04/27 01:25:18;;;;;;;;;;;;;;;20.82;41.01;101554.25;7249839;19;153259;-55
2023/04/27 01:27:45;;;;;;;;;;;;;;;20.79;41.48;101543.63;7259452;19;154041;-55
2023/04/27 01:30:12;;;;;;;;;;;;;;;20.78;41.52;101538.31;7245828;19;155259;-55
2023/04/27 01:32:39;;;;;;;;;;;;;;;20.76;41.23;101535.78;7250851;19;153210;-55
2023/04/27 01:35:06;;;;;;;;;;;;;;;20.76;41.27;101537.75;7250470;19;155246;-55
2023/04/27 01:37:33;;;;;;;;;;;;;;;20.74;41.84;101534.41;7251882;19;153948;-53
2023/04/27 01:40:00;;;;;;;;;;;;;;;20.73;41.73;101538.34;7249048;19;153467;-55
2023/04/27 01:42:27;;;;;;;;;;;;;;;20.70;41.92;101536.97;7248120;19;153912;-55
2023/04/27 01:44:54;;;;;;;;;;;;;;;20.71;41.83;101537.81;7248222;19;154314;-55
2023/04/27 01:47:21;;;;;;;;;;;;;;;20.69;41.72;101542.88;7259045;19;155666;-55
2023/04/27 01:49:50;;;;;;;;;;;;;;;20.67;41.73;101539.56;7254666;19;154574;-56
2023/04/27 01:52:17;;;;;;;;;;;;;;;20.66;42.26;101538.72;7258010;19;155227;-56
2023/04/27 01:54:44;;;;;;;;;;;;;;;20.64;42.11;101543.78;7255918;19;154812;-54
2023/04/27 01:57:11;;;;;;;;;;;;;;;20.62;42.28;101551.66;7258061;19;153652;-54
2023/04/27 01:59:38;;;;;;;;;;;;;;;20.59;42.38;101552.22;7255535;19;153694;-58
2023/04/27 02:02:05;;;;;;;;;;;;;;;20.60;42.22;101553.06;7258263;19;153350;-55
2023/04/27 02:04:32;;;;;;;;;;;;;;;20.56;42.10;101552.84;7254972;19;153207;-55
2023/04/27 02:06:59;;;;;;;;;;;;;;;20.54;41.91;101557.88;7256938;19;153416;-55
2023/04/27 02:09:26;;;;;;;;;;;;;;;20.52;42.28;101562.97;7263941;19;152976;-53
2023/04/27 02:11:53;;;;;;;;;;;;;;;20.52;41.92;101562.97;7256925;19;156568;-55
2023/04/27 02:14:20;;;;;;;;;;;;;;;20.53;42.13;101577.84;7252937;19;152257;-53
2023/04/27 02:16:47;;;;;;;;;;;;;;;20.49;42.28;101577.56;7257750;19;154850;-55
2023/04/27 02:19:14;;;;;;;;;;;;;;;20.48;42.12;101581.53;7256941;19;155913;-56
2023/04/27 02:21:41;;;;;;;;;;;;;;;20.48;42.38;101584.34;7259484;19;152434;-55
2023/04/27 02:24:08;;;;;;;;;;;;;;;20.47;42.57;101577.03;7257482;19;154085;-55
2023/04/27 02:26:35;;;;;;;;;;;;;;;20.47;42.49;101577.03;7254034;19;156300;-55
2023/04/27 02:29:02;;;;;;;;;;;;;;;20.47;42.50;101574.25;7255533;19;153519;-55
2023/04/27 02:31:30;;;;;;;;;;;;;;;20.45;42.46;101579.28;7264115;19;153820;-55
2023/04/27 02:33:57;;;;;;;;;;;;;;;20.42;42.50;101571.47;7256876;19;151827;-55
2023/04/27 02:36:24;;;;;;;;;;;;;;;20.40;42.72;101582.13;7254562;19;154518;-53
2023/04/27 02:38:51;;;;;;;;;;;;;;;20.39;42.31;101569.25;7255483;19;155738;-53
2023/04/27 02:41:20;;;;;;;;;;;;;;;20.36;42.51;101570.66;7254258;19;152725;-53
2023/04/27 02:43:50;;;;;;;;;;;;;;;20.35;42.61;101573.78;7256223;19;153868;-53
2023/04/27 02:46:17;;;;;;;;;;;;;;;20.36;42.86;101581.06;7250641;19;154490;-54
2023/04/27 02:48:44;;;;;;;;;;;;;;;20.34;42.92;101567.34;7257183;19;153637;-53
2023/04/27 02:51:11;;;;;;;;;;;;;;;20.33;42.85;101562.00;7254420;19;153245;-53
2023/04/27 02:53:38;;;;;;;;;;;;;;;20.31;43.22;101567.06;7262491;19;154542;-53
2023/04/27 02:56:05;;;;;;;;;;;;;;;20.28;43.03;101568.47;7252912;19;152374;-53
2023/04/27 02:58:34;;;;;;;;;;;;;;;20.30;43.00;101571.00;7255442;19;153217;-53
2023/04/27 03:01:01;;;;;;;;;;;;;;;20.26;43.24;101565.09;7249278;19;153523;-53
2023/04/27 03:03:28;;;;;;;;;;;;;;;20.25;42.95;101557.81;7258225;19;155642;-53
2023/04/27 03:05:56;;;;;;;;;;;;;;;20.25;43.49;101556.97;7253290;19;155457;-53
2023/04/27 03:08:25;;;;;;;;;;;;;;;20.24;43.57;101561.75;7254902;19;152039;-54
2023/04/27 03:10:52;;;;;;;;;;;;;;;20.25;43.30;101556.97;7256596;19;153683;-53
2023/04/27 03:13:19;;;;;;;;;;;;;;;20.24;43.42;101555.28;7255806;19;156175;-54
2023/04/27 03:15:49;;;;;;;;;;;;;;;20.23;43.29;101564.84;7259991;19;153539;-54
2023/04/27 03:18:16;;;;;;;;;;;;;;;20.22;43.34;101569.59;7256731;19;153754;-53
2023/04/27 03:20:43;;;;;;;;;;;;;;;20.21;43.52;101567.13;7255619;19;153970;-54
2023/04/27 03:23:10;;;;;;;;;;;;;;;20.19;43.59;101563.75;7258705;19;154182;-53
2023/04/27 03:25:37;;;;;;;;;;;;;;;20.19;43.25;101563.75;7251828;19;156062;-54
2023/04/27 03:28:05;;;;;;;;;;;;;;;20.17;43.30;101560.41;7259751;19;152762;-55
2023/04/27 03:30:32;;;;;;;;;;;;;;;20.15;43.33;101554.25;7253709;19;154024;-53
2023/04/27 03:32:59;;;;;;;;;;;;;;;20.14;43.30;101553.41;7256584;19;154276;-53
2023/04/27 03:35:26;;;;;;;;;;;;;;;20.16;43.50;101544.69;7256948;19;154649;-53
2023/04/27 03:37:53;;;;;;;;;;;;;;;20.13;43.18;101543.31;7264875;19;154338;-54
2023/04/27 03:40:20;;;;;;;;;;;;;;;20.11;43.39;101551.19;7252767;19;152886;-53
2023/04/27 03:42:47;;;;;;;;;;;;;;;20.09;43.17;101546.97;7253613;19;155122;-54
2023/04/27 03:45:15;;;;;;;;;;;;;;;20.10;43.14;101537.44;7252665;19;154834;-53
2023/04/27 03:47:42;;;;;;;;;;;;;;;20.08;43.25;101542.53;7250263;19;154801;-53
2023/04/27 03:50:09;;;;;;;;;;;;;;;20.05;43.25;101540.28;7253434;19;154600;-53
2023/04/27 03:52:36;;;;;;;;;;;;;;;20.12;43.72;101546.41;7249752;19;156076;-53
2023/04/27 03:55:04;;;;;;;;;;;;;;;20.09;43.70;101542.22;7249927;19;152458;-54
2023/04/27 03:57:30;;;;;;;;;;;;;;;20.09;43.98;101544.19;7262576;19;153531;-56
2023/04/27 03:59:57;;;;;;;;;;;;;;;20.07;43.87;101540.84;7250944;19;153442;-55
2023/04/27 04:02:26;;;;;;;;;;;;;;;20.05;43.62;101535.50;7249578;19;153366;-55
2023/04/27 04:04:53;;;;;;;;;;;;;;;20.05;43.63;101540.28;7254870;19;153456;-55
2023/04/27 04:07:20;;;;;;;;;;;;;;;20.03;43.46;101537.78;7256910;19;154187;-55
2023/04/27 04:09:47;;;;;;;;;;;;;;;20.02;43.63;101530.50;7261351;19;154369;-55
2023/04/27 04:12:14;;;;;;;;;;;;;;;20.03;43.67;101523.75;7257001;19;154760;-55
2023/04/27 04:14:41;;;;;;;;;;;;;;;20.02;43.74;101524.88;7263059;19;152501;-54
2023/04/27 04:17:09;;;;;;;;;;;;;;;20.02;43.68;101526.84;7252897;19;153523;-54
2023/04/27 04:19:36;;;;;;;;;;;;;;;20.02;43.43;101529.66;7264473;19;153710;-54
2023/04/27 04:22:03;;;;;;;;;;;;;;;19.99;43.90;101525.44;7255392;19;153548;-55
2023/04/27 04:24:30;;;;;;;;;;;;;;;19.97;43.76;101517.34;7254258;19;153617;-54
2023/04/27 04:26:57;;;;;;;;;;;;;;;19.95;43.45;101513.13;7253271;19;154865;-56
2023/04/27 04:29:24;;;;;;;;;;;;;;;19.95;43.44;101513.13;7253131;19;153719;-56
2023/04/27 04:31:51;;;;;;;;;;;;;;;19.92;43.54;101520.19;7251306;19;154875;-54
2023/04/27 04:34:18;;;;;;;;;;;;;;;19.92;43.54;101519.34;7251616;19;154469;-54
2023/04/27 04:36:46;;;;;;;;;;;;;;;19.90;43.34;101510.34;7252323;19;152990;-55
2023/04/27 04:39:13;;;;;;;;;;;;;;;19.89;43.56;101505.91;7252147;19;153884;-55
2023/04/27 04:41:41;;;;;;;;;;;;;;;19.89;43.39;101511.50;7262330;19;153656;-55
2023/04/27 04:44:08;;;;;;;;;;;;;;;19.86;43.80;101495.25;7250314;19;154705;-54
2023/04/27 04:46:36;;;;;;;;;;;;;;;19.88;43.59;101505.06;7251080;19;153300;-54
2023/04/27 04:49:03;;;;;;;;;;;;;;;19.87;43.82;101503.38;7251215;19;153384;-54
2023/04/27 04:51:30;;;;;;;;;;;;;;;19.84;43.96;101505.94;7251514;19;154730;-54
2023/04/27 04:53:58;;;;;;;;;;;;;;;19.83;43.68;101499.47;7253673;19;153236;-55
2023/04/27 04:56:27;;;;;;;;;;;;;;;19.83;43.85;101496.69;7251252;19;152604;-55
2023/04/27 04:58:54;;;;;;;;;;;;;;;19.80;43.83;101497.28;7249830;19;153685;-55
2023/04/27 05:01:21;;;;;;;;;;;;;;;19.76;43.59;101504.56;7248705;19;154208;-55
2023/04/27 05:03:48;;;;;;;;;;;;;;;19.76;43.57;101503.75;7258845;19;154107;-54
2023/04/27 05:06:15;;;;;;;;;;;;;;;19.78;43.56;101505.13;7252459;19;154617;-54
2023/04/27 05:08:42;;;;;;;;;;;;;;;19.75;43.72;101504.88;7250177;19;152675;-54
2023/04/27 05:11:10;;;;;;;;;;;;;;;19.81;44.13;101506.50;7248748;19;154658;-54
2023/04/27 05:13:39;;;;;;;;;;;;;;;19.91;44.13;101495.22;7249243;19;153940;-53
2023/04/27 05:16:06;;;;;;;;;;;;;;;19.95;43.92;101491.53;7247928;19;155180;-53
2023/04/27 05:18:36;;;;;;;;;;;;;;;20.01;43.83;101485.88;7249073;19;154578;-53
2023/04/27 05:21:04;;;;;;;;;;;;;;;20.05;44.34;101490.63;7250652;19;153242;-53
2023/04/27 05:23:31;;;;;;;;;;;;;;;20.12;44.38;101493.97;7252075;19;152580;-53
2023/04/27 05:25:58;;;;;;;;;;;;;;;20.16;44.44;101495.03;7267117;19;154142;-53
2023/04/27 05:28:25;;;;;;;;;;;;;;;20.21;44.65;101491.34;7259466;19;154321;-53
2023/04/27 05:30:52;;;;;;;;;;;;;;;20.25;44.76;101487.69;7253715;19;154207;-53
2023/04/27 05:33:19;;;;;;;;;;;;;;;20.32;44.65;101501.38;7258468;19;152736;-53
2023/04/27 05:35:46;;;;;;;;;;;;;;;20.37;44.50;101498.53;7258373;19;153196;-53
2023/04/27 05:38:16;;;;;;;;;;;;;;;20.41;44.18;101494.84;7260299;19;155003;-53
2023/04/27 05:40:43;;;;;;;;;;;;;;;20.48;44.54;101494.53;7260010;19;152571;-54
2023/04/27 05:43:10;;;;;;;;;;;;;;;20.53;44.42;101486.06;7257603;19;154061;-54
2023/04/27 05:45:38;;;;;;;;;;;;;;;20.59;44.10;101484.84;7256182;19;154136;-54
2023/04/27 05:48:05;;;;;;;;;;;;;;;20.66;44.17;101482.56;7266849;19;153373;-55
2023/04/27 05:50:33;;;;;;;;;;;;;;;20.72;43.72;101494.53;7259153;19;153408;-54
2023/04/27 05:53:00;;;;;;;;;;;;;;;20.79;44.00;101489.44;7258446;19;153894;-55
2023/04/27 05:55:27;;;;;;;;;;;;;;;20.83;43.80;101490.50;7255373;19;154781;-54
2023/04/27 05:57:54;;;;;;;;;;;;;;;20.89;44.02;101491.28;7257341;19;153479;-55
2023/04/27 06:00:37;;;;;;;;;;;;;;;20.96;43.61;101497.38;7255610;19;153804;-55
2023/04/27 06:03:04;;;;;;;;;;;;;;;20.99;43.48;101497.63;7263199;19;153680;-55
2023/04/27 06:05:35;;;;;;;;;;;;;;;21.05;43.20;101504.03;7255407;19;155258;-54
2023/04/27 06:08:02;;;;;;;;;;;;;;;21.09;43.44;101505.09;7268301;19;153427;-54
2023/04/27 06:10:29;;;;;;;;;;;;;;;21.12;43.43;101510.13;7258494;19;156081;-54
2023/04/27 06:12:56;;;;;;;;;;;;;;;21.15;42.84;101501.97;7267089;19;153799;-55
2023/04/27 06:15:23;;;;;;;;;;;;;;;21.18;42.67;101506.16;7253866;19;154351;-55
2023/04/27 06:17:53;;;;;;;;;;;;;;;21.21;43.00;101509.19;7256442;19;153430;-54
2023/04/27 06:20:20;;;;;;;;;;;;;;;21.24;42.61;101499.34;7254337;19;156175;-54
2023/04/27 06:22:47;;;;;;;;;;;;;;;21.27;42.92;101501.53;7259922;19;153840;-54
2023/04/27 06:25:14;;;;;;;;;;;;;;;21.29;42.61;101511.38;7257058;19;154904;-54
2023/04/27 06:27:42;;;;;;;;;;;;;;;21.32;42.65;101517.50;7260214;19;154303;-58
2023/04/27 06:30:12;;;;;;;;;;;;;;;21.33;42.50;101514.41;7259777;19;153611;-54
2023/04/27 06:32:39;;;;;;;;;;;;;;;21.36;42.35;101510.13;7255860;19;153454;-54
2023/04/27 06:35:06;;;;;;;;;;;;;;;21.38;42.42;101519.97;7255140;19;154050;-54
2023/04/27 06:37:34;;;;;;;;;;;;;;;21.39;42.37;101512.38;7257675;19;155807;-54
2023/04/27 06:40:01;;;;;;;;;;;;;;;21.40;41.94;101514.88;7260584;19;153912;-53
2023/04/27 06:42:28;;;;;;;;;;;;;;;21.41;41.84;101515.69;7259858;19;154146;-53
2023/04/27 06:44:57;;;;;;;;;;;;;;;21.42;42.13;101508.94;7252868;19;153869;-54
2023/04/27 06:47:24;;;;;;;;;;;;;;;21.44;41.68;101501.06;7257584;19;154591;-54
2023/04/27 06:49:51;;;;;;;;;;;;;;;21.44;41.69;101493.44;7256611;19;154820;-54
2023/04/27 06:52:18;;;;;;;;;;;;;;;21.44;41.85;101496.25;7263243;19;154903;-53
2023/04/27 06:54:46;;;;;;;;;;;;;;;21.44;42.01;101479.38;7254568;19;153923;-54
2023/04/27 06:57:13;;;;;;;;;;;;;;;21.43;41.56;101488.97;7254241;19;152819;-54
2023/04/27 06:59:40;;;;;;;;;;;;;;;21.45;41.86;101491.47;7252418;19;153622;-54
2023/04/27 07:02:07;;;;;;;;;;;;;;;21.45;41.63;101495.13;7254835;19;154387;-54
2023/04/27 07:04:36;;;;;;;;;;;;;;;21.44;41.90;101489.81;7254151;19;153537;-54
2023/04/27 07:07:04;;;;;;;;;;;;;;;21.43;41.36;101494.59;7255879;19;154268;-54
2023/04/27 07:09:34;;;;;;;;;;;;;;;21.41;41.51;101494.06;7258795;19;154516;-54
2023/04/27 07:12:02;;;;;;;;;;;;;;;21.41;41.79;101494.06;7256157;19;152528;-54
2023/04/27 07:14:30;;;;;;;;;;;;;;;21.41;41.40;101502.47;7261878;19;155061;-54
2023/04/27 07:16:57;;;;;;;;;;;;;;;21.41;41.43;101498.84;7253293;19;154678;-54
2023/04/27 07:19:24;;;;;;;;;;;;;;;21.39;41.92;101501.97;7254710;19;152649;-54
2023/04/27 07:21:52;;;;;;;;;;;;;;;21.39;41.76;101499.16;7255490;19;153850;-53
2023/04/27 07:24:20;;;;;;;;;;;;;;;21.37;41.92;101490.16;7255643;19;153606;-54
2023/04/27 07:26:47;;;;;;;;;;;;;;;21.39;41.65;101493.53;7253972;19;154615;-53
2023/04/27 07:29:16;;;;;;;;;;;;;;;21.37;41.63;101487.38;7252699;19;154146;-54
2023/04/27 07:31:54;;;;;;;;;;;;;;;21.35;41.81;101486.81;7253303;19;153600;-54
2023/04/27 07:34:22;;;;;;;;;;;;;;;21.35;42.10;101491.63;7252570;19;153646;-54
2023/04/27 07:36:50;;;;;;;;;;;;;;;21.35;42.00;101484.00;7260065;19;154569;-54
2023/04/27 07:39:18;;;;;;;;;;;;;;;21.34;41.75;101482.34;7255458;19;155493;-54
2023/04/27 07:41:47;;;;;;;;;;;;;;;21.35;41.90;101469.94;7253856;19;154201;-54
2023/04/27 07:44:14;;;;;;;;;;;;;;;21.34;41.82;101484.31;7250128;19;153895;-53
2023/04/27 07:46:42;;;;;;;;;;;;;;;21.31;42.01;101485.75;7250569;19;154637;-56
2023/04/27 07:49:12;;;;;;;;;;;;;;;21.33;41.70;101491.06;7251352;19;154081;-53
2023/04/27 07:51:41;;;;;;;;;;;;;;;21.30;42.04;101489.72;7256833;19;153424;-54
2023/04/27 07:54:09;;;;;;;;;;;;;;;21.29;42.25;101493.66;7254416;19;154063;-54
2023/04/27 07:56:39;;;;;;;;;;;;;;;21.29;41.99;101482.41;7251546;19;154579;-60
2023/04/27 07:59:08;;;;;;;;;;;;;;;21.27;42.50;101491.13;7257932;19;153857;-53
2023/04/27 08:01:37;;;;;;;;;;;;;;;21.22;41.92;101482.75;7251742;19;155717;-53
2023/04/27 08:04:06;;;;;;;;;;;;;;;21.16;42.29;101495.22;7251923;19;155328;-54
2023/04/27 08:09:42;;;;;;;;;;;;;;;21.20;41.90;101487.88;7252701;19;154175;-54
2023/04/27 08:12:14;;;;;;;;;;;;;;;21.20;41.93;101470.16;7249867;19;153724;-54
2023/04/27 08:14:56;;;;;;;;;;;;;;;21.21;41.86;101469.03;7250123;19;154957;-54
2023/04/27 08:17:24;;;;;;;;;;;;;;;21.25;42.18;101461.66;7249844;19;155050;-54
2023/04/27 08:19:54;;;;;;;;;;;;;;;21.28;41.92;101470.34;7259674;19;153205;-54
2023/04/27 08:22:21;;;;;;;;;;;;;;;21.33;42.13;101465.78;7250706;19;155282;-54
2023/04/27 08:24:52;;;;;;;;;;;;;;;21.35;42.06;101467.13;7248987;19;156759;-54
2023/04/27 08:27:27;;;;;;;;;;;;;;;21.40;41.93;101471.84;7253881;19;154742;-55
2023/04/27 08:30:15;;;;;;;;;;;;;;;21.44;42.29;101475.75;7252833;19;153350;-53
2023/04/27 08:32:48;;;;;;;;;;;;;;;21.48;42.28;101471.22;7252116;19;154698;-53
2023/04/27 08:35:19;;;;;;;;;;;;;;;21.51;42.11;101474.25;7252038;19;154016;-54
2023/04/27 08:37:57;;;;;;;;;;;;;;;21.55;42.08;101480.09;7251845;19;154407;-53
2023/04/27 08:40:53;;;;;;;;;;;;;;;21.60;41.73;101466.81;7250916;19;154208;-53
2023/04/27 08:43:50;;;;;;;;;;;;;;;21.65;41.36;101454.66;7260704;19;154149;-55
2023/04/27 08:46:19;;;;;;;;;;;;;;;21.74;41.49;101456.47;7242384;19;157495;-53
2023/04/27 08:48:50;;;;;;;;;;;;;;;21.65;39.26;101458.28;7254174;19;153985;-53
2023/04/27 08:51:18;;;;;;;;;;;;;;;21.55;36.19;101464.06;7246100;19;154354;-54
2023/04/27 08:53:51;;;;;;;;;;;;;;;21.42;34.92;101464.81;7253977;19;153440;-54
2023/04/27 08:56:22;;;;;;;;;;;;;;;21.31;34.56;101468.88;7250232;19;153172;-54
2023/04/27 08:59:00;;;;;;;;;;;;;;;21.32;34.62;101458.47;7249451;19;152568;-55
2023/04/27 09:01:27;;;;;;;;;;;;;;;21.26;33.77;101454.88;7244995;19;153373;-54
2023/04/27 09:03:56;;;;;;;;;;;;;;;21.23;33.72;101458.31;7252504;19;154541;-54
2023/04/27 09:06:29;;;;;;;;;;;;;;;21.16;33.82;101447.47;7259666;19;153985;-55
2023/04/27 09:08:58;;;;;;;;;;;;;;;21.26;34.29;101443.66;7251710;19;153672;-55
2023/04/27 09:11:40;;;;;;;;;;;;;;;21.45;34.26;101424.84;7249739;19;154283;-54
2023/04/27 09:14:16;;;;;;;;;;;;;;;21.56;34.40;101434.81;7249025;19;157345;-55
2023/04/27 09:16:44;;;;;;;;;;;;;;;21.66;35.11;101428.19;7249992;19;154399;-55
2023/04/27 09:19:22;;;;;;;;;;;;;;;21.73;35.18;101432.28;7249367;19;154372;-55
2023/04/27 09:21:50;;;;;;;;;;;;;;;21.82;35.35;101420.34;7248927;19;154769;-55
2023/04/27 09:24:17;;;;;;;;;;;;;;;21.89;35.62;101415.19;7250450;19;155566;-55
2023/04/27 09:26:49;;;;;;;;;;;;;;;21.93;36.18;101414.28;7249501;19;153719;-56
2023/04/27 09:29:20;;;;;;;;;;;;;;;21.97;36.41;101409.72;7222274;19;154813;-56
2023/04/27 09:31:48;;;;;;;;;;;;;;;22.02;36.16;101404.00;7245979;19;154177;-56
2023/04/27 09:34:16;;;;;;;;;;;;;;;22.06;36.22;101413.50;7243055;19;154101;-56
2023/04/27 09:36:47;;;;;;;;;;;;;;;22.10;36.63;101408.94;7244366;19;154401;-56
2023/04/27 09:42:37;;;;;;;;;;;;;;;22.24;36.58;101403.34;7242080;19;154587;-56
2023/04/27 09:45:06;;;;;;;;;;;;;;;22.30;36.33;101404.94;7241358;19;154716;-56
2023/04/27 09:47:33;;;;;;;;;;;;;;;22.33;36.62;101401.47;7242978;19;153752;-56
2023/04/27 09:50:05;;;;;;;;;;;;;;;22.34;36.45;101405.97;7250260;19;154396;-56
2023/04/27 09:52:34;;;;;;;;;;;;;;;22.39;36.29;101391.81;7257527;19;154565;-56
2023/04/27 09:55:02;;;;;;;;;;;;;;;22.39;36.41;101400.25;7243113;19;152597;-56
2023/04/27 09:57:36;;;;;;;;;;;;;;;22.42;36.27;101395.97;7248021;19;153414;-56
2023/04/27 10:00:09;;;;;;;;;;;;;;;22.45;36.45;101396.19;7246075;19;154395;-55
2023/04/27 10:02:41;;;;;;;;;;;;;;;22.46;35.70;101399.81;7248359;19;152232;-56
2023/04/27 10:05:30;;;;;;;;;;;;;;;22.45;35.97;101400.97;7244458;19;153927;-56
2023/04/27 10:07:57;;;;;;;;;;;;;;;22.46;36.19;101378.13;7246288;19;155999;-55
2023/04/27 10:10:25;;;;;;;;;;;;;;;22.48;35.99;101380.66;7250483;19;153524;-55
2023/04/27 10:12:56;;;;;;;;;;;;;;;22.48;35.73;101377.84;7263071;19;153591;-55
2023/04/27 10:15:26;;;;;;;;;;;;;;;22.49;36.01;101390.75;7250004;19;155379;-55
2023/04/27 10:18:03;;;;;;;;;;;;;;;22.47;36.15;101381.78;7254138;19;154280;-55
2023/04/27 10:20:31;;;;;;;;;;;;;;;22.44;35.91;101391.69;7255719;19;153309;-55
2023/04/27 10:22:59;;;;;;;;;;;;;;;22.44;36.01;101383.22;7252512;19;153412;-55
2023/04/27 10:25:28;;;;;;;;;;;;;;;22.41;36.54;101380.22;7253791;19;152490;-55
2023/04/27 10:27:58;;;;;;;;;;;;;;;22.39;36.31;101382.53;7252579;19;154029;-55
2023/04/27 10:30:42;;;;;;;;;;;;;;;22.39;36.67;101376.88;7252303;19;156073;-55
2023/04/27 10:33:18;;;;;;;;;;;;;;;22.33;36.40;101370.50;7255846;19;153633;-55
2023/04/27 10:35:54;;;;;;;;;;;;;;;22.33;36.67;101370.50;7259639;19;155124;-55
2023/04/27 10:38:26;;;;;;;;;;;;;;;22.31;36.25;101363.50;7256742;19;153271;-55
2023/04/27 10:40:55;;;;;;;;;;;;;;;22.29;36.53;101358.22;7256709;19;153650;-55
2023/04/27 10:43:25;;;;;;;;;;;;;;;22.30;36.53;101356.22;7253180;19;153520;-55
2023/04/27 10:45:53;;;;;;;;;;;;;;;22.27;36.51;101346.41;7247753;19;153818;-55
2023/04/27 10:48:21;;;;;;;;;;;;;;;22.27;36.71;101337.13;7253840;19;153126;-55
2023/04/27 10:50:50;;;;;;;;;;;;;;;22.30;36.73;101348.63;7254799;19;155122;-55
2023/04/27 10:53:18;;;;;;;;;;;;;;;22.25;37.00;101345.91;7254391;19;154617;-55
2023/04/27 10:55:46;;;;;;;;;;;;;;;22.24;36.99;101352.66;7250825;19;153435;-55
2023/04/27 10:58:14;;;;;;;;;;;;;;;22.24;37.02;101340.56;7262748;19;155175;-54
2023/04/27 11:00:43;;;;;;;;;;;;;;;22.21;37.03;101330.78;7254630;19;155109;-54
2023/04/27 11:03:15;;;;;;;;;;;;;;;22.23;36.79;101331.28;7252296;19;154415;-54
2023/04/27 11:05:48;;;;;;;;;;;;;;;22.27;37.18;101326.69;7250414;19;153251;-55
2023/04/27 11:08:17;;;;;;;;;;;;;;;22.34;36.68;101331.94;7251407;19;153621;-55
2023/04/27 11:11:10;;;;;;;;;;;;;;;22.42;36.56;101317.13;7250077;19;153807;-54
2023/04/27 11:13:42;;;;;;;;;;;;;;;22.45;36.99;101305.22;7251346;19;154627;-55
2023/04/27 11:16:35;;;;;;;;;;;;;;;22.50;36.93;101305.13;7249786;19;154305;-55
2023/04/27 11:19:19;;;;;;;;;;;;;;;22.55;36.85;101294.59;7250779;19;154398;-55
2023/04/27 11:21:52;;;;;;;;;;;;;;;22.58;36.71;101299.59;7258477;19;154741;-54
2023/04/27 11:24:32;;;;;;;;;;;;;;;22.60;36.80;101285.22;7251549;19;153960;-55
2023/04/27 11:27:10;;;;;;;;;;;;;;;22.62;36.93;101283.72;7251775;19;154310;-54
2023/04/27 11:29:41;;;;;;;;;;;;;;;22.71;36.78;101283.88;7247028;19;153749;-55
2023/04/27 11:32:17;;;;;;;;;;;;;;;22.73;36.60;101277.91;7247327;19;153856;-55
2023/04/27 11:34:54;;;;;;;;;;;;;;;22.77;36.54;101278.94;7250665;19;153391;-55
2023/04/27 11:37:29;;;;;;;;;;;;;;;22.79;36.59;101265.41;7250614;19;154251;-55
2023/04/27 11:40:13;;;;;;;;;;;;;;;22.79;36.47;101256.94;7250325;19;153793;-55
2023/04/27 11:43:04;;;;;;;;;;;;;;;22.76;36.83;101268.84;7254333;19;153415;-54
2023/04/27 11:45:49;;;;;;;;;;;;;;;22.79;36.50;101262.56;7252827;19;156039;-54
2023/04/27 11:48:17;;;;;;;;;;;;;;;22.73;36.85;101259.03;7252025;19;153596;-55
2023/04/27 11:50:52;;;;;;;;;;;;;;;22.73;36.39;101259.03;7254782;19;153907;-55
2023/04/27 11:53:33;;;;;;;;;;;;;;;22.73;36.93;101258.19;7250677;19;154170;-55
2023/04/27 11:56:04;;;;;;;;;;;;;;;22.69;37.25;101248.69;7249184;19;154196;-56
2023/04/27 11:58:37;;;;;;;;;;;;;;;22.68;36.82;101247.84;7249456;19;154008;-55
2023/04/27 12:01:06;;;;;;;;;;;;;;;22.69;36.90;101249.50;7250520;19;153098;-55
2023/04/27 12:03:33;;;;;;;;;;;;;;;22.66;36.66;101249.31;7253731;19;153027;-55
2023/04/27 12:06:01;;;;;;;;;;;;;;;22.65;36.50;101239.19;7252045;19;153582;-55
2023/04/27 12:08:49;;;;;;;;;;;;;;;22.65;36.42;101227.94;7259033;19;153611;-55
2023/04/27 12:11:17;;;;;;;;;;;;;;;22.62;36.97;101232.22;7248243;19;154569;-55
2023/04/27 12:14:08;;;;;;;;;;;;;;;22.62;37.03;101237.84;7249204;19;154178;-55
2023/04/27 12:16:36;;;;;;;;;;;;;;;22.63;36.44;101234.69;7248917;19;154005;-55
2023/04/27 12:19:03;;;;;;;;;;;;;;;22.60;36.75;101231.69;7248802;19;153941;-55
2023/04/27 12:21:33;;;;;;;;;;;;;;;22.56;36.64;101228.69;7250426;19;155291;-55
2023/04/27 12:24:01;;;;;;;;;;;;;;;22.49;36.75;101214.19;7251873;19;152971;-54
2023/04/27 12:26:29;;;;;;;;;;;;;;;22.49;36.78;101221.78;7248670;19;155248;-55
2023/04/27 12:28:57;;;;;;;;;;;;;;;22.45;36.99;101215.97;7258365;19;153901;-55
2023/04/27 12:31:24;;;;;;;;;;;;;;;22.44;37.13;101210.66;7247397;19;153349;-55
2023/04/27 12:33:53;;;;;;;;;;;;;;;22.41;37.34;101205.63;7244007;19;153295;-55
2023/04/27 12:36:26;;;;;;;;;;;;;;;22.41;37.28;101211.28;7248061;19;152130;-55
2023/04/27 12:38:57;;;;;;;;;;;;;;;22.38;36.73;101209.94;7249107;19;154449;-55
2023/04/27 12:41:25;;;;;;;;;;;;;;;22.36;36.59;101206.59;7249827;19;153911;-55
2023/04/27 12:43:53;;;;;;;;;;;;;;;22.34;36.62;101206.09;7249778;19;155004;-55
2023/04/27 12:46:27;;;;;;;;;;;;;;;22.38;36.78;101201.50;7245971;19;154095;-55